This is the latest recevied weather packets stored in our database for station/object KQ4WWD. If no packets are shown the sender has not sent any weather packets the latest 10 day(s).
| Time | Temp. | Humidity | Pressure | Rain* | Wind** | Luminosity | Snow |
|---|---|---|---|---|---|---|---|
| 1777329727 | 24.44° C | 77% | 1017 hPa | 0 mm | - | 82 W/m² | - |
| 1777329425 | 24.44° C | 76% | 1017.2 hPa | 0 mm | - | 182 W/m² | - |
| 1777329122 | 24.44° C | 76% | 1017.1 hPa | 0 mm | - | 103 W/m² | - |
| 1777328819 | 24.44° C | 76% | 1016.9 hPa | 0 mm | - | 197 W/m² | - |
| 1777328516 | 24.44° C | 77% | 1017 hPa | 0 mm | - | 109 W/m² | - |
| 1777328215 | 25.56° C | 75% | 1017.1 hPa | 0 mm | - | 222 W/m² | - |
| 1777327913 | 25° C | 76% | 1016.7 hPa | 0 mm | - | 150 W/m² | - |
| 1777327610 | 25.56° C | 73% | 1016.8 hPa | 0 mm | - | 266 W/m² | - |
| 1777327308 | 25.56° C | 73% | 1016.8 hPa | 0 mm | - | 302 W/m² | - |
| 1777327004 | 25.56° C | 74% | 1016.9 hPa | 0 mm | - | 235 W/m² | - |
| 1777326702 | 25.56° C | 74% | 1016.8 hPa | 0 mm | - | 296 W/m² | - |
| 1777326399 | 25.56° C | 72% | 1016.6 hPa | 0 mm | - | 327 W/m² | - |
| 1777326097 | 26.11° C | 72% | 1016.7 hPa | 0 mm | - | 343 W/m² | - |
| 1777325794 | 25.56° C | 74% | 1016.7 hPa | 0 mm | - | 284 W/m² | - |
| 1777325492 | 26.11° C | 72% | 1016.7 hPa | 0 mm | - | 335 W/m² | - |
| 1777325190 | 26.67° C | 70% | 1016.7 hPa | 0 mm | - | 416 W/m² | - |
| 1777324886 | 26.11° C | 72% | 1016.8 hPa | 0 mm | - | 417 W/m² | - |
| 1777324584 | 26.11° C | 72% | 1016.8 hPa | 0 mm | - | 115 W/m² | - |
| 1777324281 | 25.56° C | 73% | 1016.9 hPa | 0 mm | - | 445 W/m² | - |
| 1777323979 | 26.11° C | 72% | 1016.8 hPa | 0 mm | - | 140 W/m² | - |
| 1777323676 | 27.22° C | 69% | 1016.4 hPa | 0 mm | - | 335 W/m² | - |
| 1777323373 | 26.67° C | 70% | 1016.8 hPa | 0 mm | - | 504 W/m² | - |
| 1777323071 | 25.56° C | 71% | 1016.8 hPa | 0 mm | - | 298 W/m² | - |
| 1777322769 | 26.67° C | 72% | 1016.4 hPa | 0 mm | - | 205 W/m² | - |
| 1777322467 | 27.78° C | 69% | 1016.5 hPa | 0 mm | - | 372 W/m² | - |
* Rain latest hour (hover to see other rain measurements)
** Current wind speed in m/s (hover to see current wind gust speed)